sensor_id;sensor_type;location;lat;lon;timestamp;pressure;altitude;pressure_sealevel;temperature;humidity
55171;BME280;41060;47.510;8.680;2023-05-09T00:01:57;97341.41;;;18.47;53.21
55171;BME280;41060;47.510;8.680;2023-05-09T00:04:23;97334.03;;;18.49;52.98
55171;BME280;41060;47.510;8.680;2023-05-09T00:06:50;97340.22;;;18.41;53.44
55171;BME280;41060;47.510;8.680;2023-05-09T00:09:17;97338.88;;;18.29;54.03
55171;BME280;41060;47.510;8.680;2023-05-09T00:11:44;97330.00;;;18.36;53.13
55171;BME280;41060;47.510;8.680;2023-05-09T00:14:10;97338.72;;;18.38;53.13
55171;BME280;41060;47.510;8.680;2023-05-09T00:16:38;97334.00;;;18.40;53.30
55171;BME280;41060;47.510;8.680;2023-05-09T00:19:06;97334.69;;;18.42;53.22
55171;BME280;41060;47.510;8.680;2023-05-09T00:21:33;97334.19;;;18.47;52.98
55171;BME280;41060;47.510;8.680;2023-05-09T00:24:00;97337.22;;;18.60;52.74
55171;BME280;41060;47.510;8.680;2023-05-09T00:26:26;97340.59;;;18.54;53.11
55171;BME280;41060;47.510;8.680;2023-05-09T00:28:55;97334.88;;;18.49;53.32
55171;BME280;41060;47.510;8.680;2023-05-09T00:31:22;97338.22;;;18.59;52.83
55171;BME280;41060;47.510;8.680;2023-05-09T00:33:49;97344.72;;;18.40;53.61
55171;BME280;41060;47.510;8.680;2023-05-09T00:36:17;97334.69;;;18.51;52.93
55171;BME280;41060;47.510;8.680;2023-05-09T00:38:44;97327.66;;;18.58;53.07
55171;BME280;41060;47.510;8.680;2023-05-09T00:41:10;97323.19;;;18.66;52.73
55171;BME280;41060;47.510;8.680;2023-05-09T00:43:37;97314.63;;;18.71;52.64
55171;BME280;41060;47.510;8.680;2023-05-09T00:46:04;97319.66;;;18.74;52.46
55171;BME280;41060;47.510;8.680;2023-05-09T00:48:31;97314.78;;;18.77;52.38
55171;BME280;41060;47.510;8.680;2023-05-09T00:50:57;97306.09;;;18.84;52.59
55171;BME280;41060;47.510;8.680;2023-05-09T00:53:26;97307.72;;;18.85;52.77
55171;BME280;41060;47.510;8.680;2023-05-09T00:55:54;97312.78;;;18.88;52.43
55171;BME280;41060;47.510;8.680;2023-05-09T00:58:20;97303.72;;;18.89;52.23
55171;BME280;41060;47.510;8.680;2023-05-09T01:00:48;97306.41;;;18.89;52.26
55171;BME280;41060;47.510;8.680;2023-05-09T01:03:18;97301.88;;;18.89;52.17
55171;BME280;41060;47.510;8.680;2023-05-09T01:05:53;97300.38;;;18.87;52.18
55171;BME280;41060;47.510;8.680;2023-05-09T01:08:33;97294.69;;;18.82;51.95
55171;BME280;41060;47.510;8.680;2023-05-09T01:11:08;97298.19;;;18.82;52.25
55171;BME280;41060;47.510;8.680;2023-05-09T01:13:37;97292.31;;;18.87;52.00
55171;BME280;41060;47.510;8.680;2023-05-09T01:16:11;97291.47;;;18.86;52.33
55171;BME280;41060;47.510;8.680;2023-05-09T01:18:47;97272.03;;;18.60;52.60
55171;BME280;41060;47.510;8.680;2023-05-09T01:21:20;97283.78;;;18.67;53.05
55171;BME280;41060;47.510;8.680;2023-05-09T01:24:05;97283.25;;;18.63;53.22
55171;BME280;41060;47.510;8.680;2023-05-09T01:26:42;97285.09;;;18.63;52.99
55171;BME280;41060;47.510;8.680;2023-05-09T01:29:31;97284.75;;;18.50;53.41
55171;BME280;41060;47.510;8.680;2023-05-09T01:32:02;97280.91;;;18.36;53.93
55171;BME280;41060;47.510;8.680;2023-05-09T01:34:37;97247.91;;;18.35;53.18
55171;BME280;41060;47.510;8.680;2023-05-09T01:37:04;97266.34;;;18.47;53.04
55171;BME280;41060;47.510;8.680;2023-05-09T01:39:33;97270.34;;;18.51;53.07
55171;BME280;41060;47.510;8.680;2023-05-09T01:42:01;97257.78;;;18.51;53.11
55171;BME280;41060;47.510;8.680;2023-05-09T01:44:33;97264.16;;;18.58;53.02
55171;BME280;41060;47.510;8.680;2023-05-09T01:47:02;97259.47;;;18.60;52.90
55171;BME280;41060;47.510;8.680;2023-05-09T01:49:31;97257.78;;;18.59;52.85
55171;BME280;41060;47.510;8.680;2023-05-09T01:52:00;97262.97;;;18.61;52.26
55171;BME280;41060;47.510;8.680;2023-05-09T01:54:29;97255.44;;;18.64;52.31
55171;BME280;41060;47.510;8.680;2023-05-09T01:56:57;97260.78;;;18.64;52.40
55171;BME280;41060;47.510;8.680;2023-05-09T01:59:25;97264.19;;;18.66;52.11
55171;BME280;41060;47.510;8.680;2023-05-09T02:01:55;97254.59;;;18.64;52.04
55171;BME280;41060;47.510;8.680;2023-05-09T02:04:22;97250.75;;;18.58;51.63
55171;BME280;41060;47.510;8.680;2023-05-09T02:06:50;97263.00;;;18.69;51.68
55171;BME280;41060;47.510;8.680;2023-05-09T02:09:18;97264.84;;;18.68;51.74
55171;BME280;41060;47.510;8.680;2023-05-09T02:11:45;97263.31;;;18.66;51.85
55171;BME280;41060;47.510;8.680;2023-05-09T02:14:12;97265.03;;;18.67;51.51
55171;BME280;41060;47.510;8.680;2023-05-09T02:16:40;97263.19;;;18.67;51.59
55171;BME280;41060;47.510;8.680;2023-05-09T02:19:08;97268.00;;;18.64;51.75
55171;BME280;41060;47.510;8.680;2023-05-09T02:21:34;97263.63;;;18.63;51.89
55171;BME280;41060;47.510;8.680;2023-05-09T02:24:02;97259.47;;;18.60;52.17
55171;BME280;41060;47.510;8.680;2023-05-09T02:26:30;97258.63;;;18.60;51.95
55171;BME280;41060;47.510;8.680;2023-05-09T02:28:57;97252.91;;;18.55;52.21
55171;BME280;41060;47.510;8.680;2023-05-09T02:31:27;97252.91;;;18.55;52.08
55171;BME280;41060;47.510;8.680;2023-05-09T02:33:55;97249.06;;;18.57;52.01
55171;BME280;41060;47.510;8.680;2023-05-09T02:36:23;97249.59;;;18.53;51.95
55171;BME280;41060;47.510;8.680;2023-05-09T02:38:51;97246.38;;;18.49;51.98
55171;BME280;41060;47.510;8.680;2023-05-09T02:41:17;97241.03;;;18.49;51.85
55171;BME280;41060;47.510;8.680;2023-05-09T02:43:44;97239.34;;;18.48;51.90
55171;BME280;41060;47.510;8.680;2023-05-09T02:46:11;97242.03;;;18.48;52.06
55171;BME280;41060;47.510;8.680;2023-05-09T02:48:44;97231.81;;;18.35;51.93
55171;BME280;41060;47.510;8.680;2023-05-09T02:51:11;97243.22;;;18.37;52.11
55171;BME280;41060;47.510;8.680;2023-05-09T02:53:38;97253.94;;;18.37;52.07
55171;BME280;41060;47.510;8.680;2023-05-09T02:56:05;97237.69;;;18.31;51.89
55171;BME280;41060;47.510;8.680;2023-05-09T02:58:33;97230.13;;;18.26;51.93
55171;BME280;41060;47.510;8.680;2023-05-09T03:01:00;97237.69;;;18.31;52.08
55171;BME280;41060;47.510;8.680;2023-05-09T03:03:26;97234.00;;;18.32;52.00
55171;BME280;41060;47.510;8.680;2023-05-09T03:05:53;97243.38;;;18.36;51.88
55171;BME280;41060;47.510;8.680;2023-05-09T03:08:20;97226.44;;;18.27;52.02
55171;BME280;41060;47.510;8.680;2023-05-09T03:10:48;97237.00;;;18.29;52.27
55171;BME280;41060;47.510;8.680;2023-05-09T03:13:15;97241.69;;;18.27;52.07
55171;BME280;41060;47.510;8.680;2023-05-09T03:15:42;97235.50;;;18.26;52.00
55171;BME280;41060;47.510;8.680;2023-05-09T03:18:08;97232.16;;;18.24;52.01
55171;BME280;41060;47.510;8.680;2023-05-09T03:20:36;97231.66;;;18.29;52.18
55171;BME280;41060;47.510;8.680;2023-05-09T03:23:03;97221.25;;;18.26;52.15
55171;BME280;41060;47.510;8.680;2023-05-09T03:25:29;97218.41;;;18.19;52.15
55171;BME280;41060;47.510;8.680;2023-05-09T03:27:57;97212.88;;;18.13;52.19
55171;BME280;41060;47.510;8.680;2023-05-09T03:30:24;97224.44;;;18.13;52.27
55171;BME280;41060;47.510;8.680;2023-05-09T03:32:51;97232.22;;;17.74;53.37
55171;BME280;41060;47.510;8.680;2023-05-09T03:35:18;97232.63;;;17.87;53.16
55171;BME280;41060;47.510;8.680;2023-05-09T03:37:45;97240.47;;;17.89;53.22
55171;BME280;41060;47.510;8.680;2023-05-09T03:40:11;97225.41;;;17.96;53.10
55171;BME280;41060;47.510;8.680;2023-05-09T03:42:39;97231.25;;;17.83;53.89
55171;BME280;41060;47.510;8.680;2023-05-09T03:45:08;97221.25;;;17.93;53.33
55171;BME280;41060;47.510;8.680;2023-05-09T03:47:34;97223.44;;;18.06;53.22
55171;BME280;41060;47.510;8.680;2023-05-09T03:50:02;97222.44;;;18.07;53.36
55171;BME280;41060;47.510;8.680;2023-05-09T03:52:29;97216.56;;;18.12;53.17
55171;BME280;41060;47.510;8.680;2023-05-09T03:54:55;97213.56;;;18.15;52.98
55171;BME280;41060;47.510;8.680;2023-05-09T03:57:22;97215.41;;;18.14;53.21
55171;BME280;41060;47.510;8.680;2023-05-09T03:59:48;97211.03;;;18.13;53.06
55171;BME280;41060;47.510;8.680;2023-05-09T04:02:16;97211.03;;;18.13;53.33
55171;BME280;41060;47.510;8.680;2023-05-09T04:04:44;97218.41;;;17.95;53.90
55171;BME280;41060;47.510;8.680;2023-05-09T04:07:11;97223.91;;;17.85;54.12
55171;BME280;41060;47.510;8.680;2023-05-09T04:09:41;97227.88;;;17.81;54.28
55171;BME280;41060;47.510;8.680;2023-05-09T04:12:08;97231.38;;;17.82;54.33
55171;BME280;41060;47.510;8.680;2023-05-09T04:14:34;97226.38;;;17.79;55.12
55171;BME280;41060;47.510;8.680;2023-05-09T04:17:01;97229.94;;;17.87;55.30
55171;BME280;41060;47.510;8.680;2023-05-09T04:19:29;97233.97;;;17.91;55.34
55171;BME280;41060;47.510;8.680;2023-05-09T04:21:56;97238.78;;;17.88;55.58
55171;BME280;41060;47.510;8.680;2023-05-09T04:24:22;97231.81;;;17.95;55.33
55171;BME280;41060;47.510;8.680;2023-05-09T04:26:49;97228.44;;;17.93;55.56
55171;BME280;41060;47.510;8.680;2023-05-09T04:29:16;97239.34;;;17.99;55.22
55171;BME280;41060;47.510;8.680;2023-05-09T04:31:42;97221.56;;;17.90;55.24
55171;BME280;41060;47.510;8.680;2023-05-09T04:34:09;97241.16;;;17.99;56.18
55171;BME280;41060;47.510;8.680;2023-05-09T04:36:37;97230.28;;;17.92;55.60
55171;BME280;41060;47.510;8.680;2023-05-09T04:39:07;97184.22;;;17.89;55.54
55171;BME280;41060;47.510;8.680;2023-05-09T04:41:35;97216.91;;;18.09;55.59
55171;BME280;41060;47.510;8.680;2023-05-09T04:44:02;97221.59;;;18.07;55.11
55171;BME280;41060;47.510;8.680;2023-05-09T04:46:28;97226.28;;;18.13;54.88
55171;BME280;41060;47.510;8.680;2023-05-09T04:48:55;97220.91;;;18.13;55.03
55171;BME280;41060;47.510;8.680;2023-05-09T04:51:22;97225.81;;;18.17;55.12
55171;BME280;41060;47.510;8.680;2023-05-09T04:53:49;97214.88;;;18.27;54.68
55171;BME280;41060;47.510;8.680;2023-05-09T04:56:17;97213.88;;;18.36;54.19
55171;BME280;41060;47.510;8.680;2023-05-09T04:58:43;97208.69;;;18.42;53.97
55171;BME280;41060;47.510;8.680;2023-05-09T05:01:10;97211.88;;;18.46;53.96
55171;BME280;41060;47.510;8.680;2023-05-09T05:03:38;97212.69;;;18.55;53.59
55171;BME280;41060;47.510;8.680;2023-05-09T05:06:05;97205.31;;;18.65;53.54
55171;BME280;41060;47.510;8.680;2023-05-09T05:08:32;97218.22;;;18.69;53.28
55171;BME280;41060;47.510;8.680;2023-05-09T05:11:00;97209.31;;;18.77;53.26
55171;BME280;41060;47.510;8.680;2023-05-09T05:13:29;97208.84;;;18.82;52.94
55171;BME280;41060;47.510;8.680;2023-05-09T05:15:56;97209.31;;;18.85;53.32
55171;BME280;41060;47.510;8.680;2023-05-09T05:18:26;97217.50;;;18.92;52.81
55171;BME280;41060;47.510;8.680;2023-05-09T05:20:52;97213.31;;;18.97;53.13
55171;BME280;41060;47.510;8.680;2023-05-09T05:23:21;97177.81;;;18.79;53.19
55171;BME280;41060;47.510;8.680;2023-05-09T05:25:48;97212.97;;;19.00;52.58
55171;BME280;41060;47.510;8.680;2023-05-09T05:28:16;97216.16;;;19.04;52.51
55171;BME280;41060;47.510;8.680;2023-05-09T05:30:43;97211.63;;;19.04;52.86
55171;BME280;41060;47.510;8.680;2023-05-09T05:33:10;97211.28;;;18.99;53.10
55171;BME280;41060;47.510;8.680;2023-05-09T05:35:36;97197.09;;;18.91;53.13
55171;BME280;41060;47.510;8.680;2023-05-09T05:38:03;97212.47;;;19.05;52.91
55171;BME280;41060;47.510;8.680;2023-05-09T05:40:32;97210.44;;;19.07;52.97
55171;BME280;41060;47.510;8.680;2023-05-09T05:43:01;97210.09;;;19.10;53.04
55171;BME280;41060;47.510;8.680;2023-05-09T05:45:29;97208.91;;;19.12;52.98
55171;BME280;41060;47.510;8.680;2023-05-09T05:47:56;97204.53;;;19.19;52.78
55171;BME280;41060;47.510;8.680;2023-05-09T05:50:22;97205.34;;;19.28;52.58
55171;BME280;41060;47.510;8.680;2023-05-09T05:52:49;97202.97;;;19.33;52.44
55171;BME280;41060;47.510;8.680;2023-05-09T05:55:16;97202.47;;;19.30;52.52
55171;BME280;41060;47.510;8.680;2023-05-09T05:57:45;97182.53;;;19.24;52.52
55171;BME280;41060;47.510;8.680;2023-05-09T06:00:13;97202.09;;;19.41;52.56
55171;BME280;41060;47.510;8.680;2023-05-09T06:02:43;97173.81;;;19.22;52.01
55171;BME280;41060;47.510;8.680;2023-05-09T06:05:10;97203.09;;;19.48;51.88
55171;BME280;41060;47.510;8.680;2023-05-09T06:07:36;97195.88;;;19.48;52.02
55171;BME280;41060;47.510;8.680;2023-05-09T06:10:06;97198.56;;;19.48;52.61
55171;BME280;41060;47.510;8.680;2023-05-09T06:12:33;97188.13;;;19.45;52.65
55171;BME280;41060;47.510;8.680;2023-05-09T06:14:59;97188.13;;;19.45;52.81
55171;BME280;41060;47.510;8.680;2023-05-09T06:17:26;97172.88;;;19.38;52.71
55171;BME280;41060;47.510;8.680;2023-05-09T06:19:54;97180.75;;;19.47;52.39
55171;BME280;41060;47.510;8.680;2023-05-09T06:22:21;97178.56;;;19.51;52.03
55171;BME280;41060;47.510;8.680;2023-05-09T06:24:48;97185.94;;;19.57;51.95
55171;BME280;41060;47.510;8.680;2023-05-09T06:27:15;97189.75;;;19.63;51.90
55171;BME280;41060;47.510;8.680;2023-05-09T06:29:41;97187.72;;;19.65;51.90
55171;BME280;41060;47.510;8.680;2023-05-09T06:32:08;97174.75;;;19.68;51.45
55171;BME280;41060;47.510;8.680;2023-05-09T06:34:35;97174.44;;;19.71;51.87
55171;BME280;41060;47.510;8.680;2023-05-09T06:37:02;97175.25;;;19.72;51.46
55171;BME280;41060;47.510;8.680;2023-05-09T06:39:29;97162.13;;;19.77;51.25
55171;BME280;41060;47.510;8.680;2023-05-09T06:41:56;97157.88;;;19.82;50.75
55171;BME280;41060;47.510;8.680;2023-05-09T06:44:22;97152.34;;;19.84;51.02
55171;BME280;41060;47.510;8.680;2023-05-09T06:46:50;97153.94;;;19.93;51.05
55171;BME280;41060;47.510;8.680;2023-05-09T06:49:16;97155.91;;;19.99;50.84
55171;BME280;41060;47.510;8.680;2023-05-09T06:51:43;97147.34;;;19.95;50.98
55171;BME280;41060;47.510;8.680;2023-05-09T06:54:11;97137.16;;;19.68;51.41
55171;BME280;41060;47.510;8.680;2023-05-09T06:56:38;97135.88;;;19.25;53.14
55171;BME280;41060;47.510;8.680;2023-05-09T06:59:07;97126.66;;;18.89;53.36
55171;BME280;41060;47.510;8.680;2023-05-09T07:01:38;97139.38;;;18.95;54.00
55171;BME280;41060;47.510;8.680;2023-05-09T07:04:04;97144.06;;;18.93;54.31
55171;BME280;41060;47.510;8.680;2023-05-09T07:06:31;97148.34;;;18.71;54.72
55171;BME280;41060;47.510;8.680;2023-05-09T07:08:58;97145.31;;;18.66;54.47
55171;BME280;41060;47.510;8.680;2023-05-09T07:11:26;97130.53;;;18.78;54.52
55171;BME280;41060;47.510;8.680;2023-05-09T07:13:52;97130.66;;;18.93;54.50
55171;BME280;41060;47.510;8.680;2023-05-09T07:16:19;97124.03;;;19.11;53.80
55171;BME280;41060;47.510;8.680;2023-05-09T07:18:47;97121.03;;;19.06;53.84
55171;BME280;41060;47.510;8.680;2023-05-09T07:21:13;97128.09;;;18.99;54.40
55171;BME280;41060;47.510;8.680;2023-05-09T07:23:40;97125.09;;;19.02;54.87
55171;BME280;41060;47.510;8.680;2023-05-09T07:26:07;97124.63;;;18.99;54.69
55171;BME280;41060;47.510;8.680;2023-05-09T07:28:35;97119.38;;;19.05;54.92
55171;BME280;41060;47.510;8.680;2023-05-09T07:31:02;97107.44;;;19.08;55.10
55171;BME280;41060;47.510;8.680;2023-05-09T07:33:30;97103.63;;;19.02;55.21
55171;BME280;41060;47.510;8.680;2023-05-09T07:35:57;97085.53;;;18.96;55.11
55171;BME280;41060;47.510;8.680;2023-05-09T07:38:26;97105.63;;;19.00;54.83
55171;BME280;41060;47.510;8.680;2023-05-09T07:40:53;97105.63;;;19.00;55.26
55171;BME280;41060;47.510;8.680;2023-05-09T07:43:19;97094.56;;;19.03;54.94
55171;BME280;41060;47.510;8.680;2023-05-09T07:45:48;97074.09;;;19.02;55.36
55171;BME280;41060;47.510;8.680;2023-05-09T07:48:15;97085.81;;;19.09;54.68
55171;BME280;41060;47.510;8.680;2023-05-09T07:50:44;97085.88;;;19.24;54.95
55171;BME280;41060;47.510;8.680;2023-05-09T07:53:11;97083.50;;;19.29;55.39
55171;BME280;41060;47.510;8.680;2023-05-09T07:55:37;97081.69;;;19.22;55.40
55171;BME280;41060;47.510;8.680;2023-05-09T07:58:04;97074.16;;;19.25;55.35
55171;BME280;41060;47.510;8.680;2023-05-09T08:00:31;97076.94;;;19.32;54.75
55171;BME280;41060;47.510;8.680;2023-05-09T08:02:59;97068.91;;;19.32;55.11
55171;BME280;41060;47.510;8.680;2023-05-09T08:05:25;97057.69;;;19.28;55.18
55171;BME280;41060;47.510;8.680;2023-05-09T08:07:53;97067.16;;;19.47;54.50
55171;BME280;41060;47.510;8.680;2023-05-09T08:10:19;97050.69;;;19.50;54.15
55171;BME280;41060;47.510;8.680;2023-05-09T08:12:47;97047.03;;;19.43;54.57
55171;BME280;41060;47.510;8.680;2023-05-09T08:15:14;97046.97;;;19.51;53.79
55171;BME280;41060;47.510;8.680;2023-05-09T08:17:41;97052.53;;;19.49;53.63
55171;BME280;41060;47.510;8.680;2023-05-09T08:20:11;97037.94;;;19.67;53.58
55171;BME280;41060;47.510;8.680;2023-05-09T08:22:39;97017.19;;;19.61;52.21
55171;BME280;41060;47.510;8.680;2023-05-09T08:25:06;97043.91;;;19.77;52.52
55171;BME280;41060;47.510;8.680;2023-05-09T08:27:33;97041.28;;;20.06;52.14
55171;BME280;41060;47.510;8.680;2023-05-09T08:30:00;97029.84;;;20.27;51.37
55171;BME280;41060;47.510;8.680;2023-05-09T08:32:27;97019.09;;;20.56;50.72
55171;BME280;41060;47.510;8.680;2023-05-09T08:34:53;97027.03;;;20.79;50.63
55171;BME280;41060;47.510;8.680;2023-05-09T08:37:22;97016.63;;;20.91;49.83
55171;BME280;41060;47.510;8.680;2023-05-09T08:39:49;97011.44;;;21.25;49.34
55171;BME280;41060;47.510;8.680;2023-05-09T08:42:18;97009.53;;;20.68;48.89
55171;BME280;41060;47.510;8.680;2023-05-09T08:44:47;97006.84;;;20.68;48.74
55171;BME280;41060;47.510;8.680;2023-05-09T08:47:14;97002.28;;;20.69;49.50
55171;BME280;41060;47.510;8.680;2023-05-09T08:49:41;96992.84;;;20.94;48.59
55171;BME280;41060;47.510;8.680;2023-05-09T08:52:10;97002.84;;;20.64;48.45
55171;BME280;41060;47.510;8.680;2023-05-09T08:54:38;96996.81;;;20.48;48.44
55171;BME280;41060;47.510;8.680;2023-05-09T08:57:05;96979.03;;;20.47;49.07
55171;BME280;41060;47.510;8.680;2023-05-09T08:59:32;96977.06;;;20.41;48.46
55171;BME280;41060;47.510;8.680;2023-05-09T09:02:01;96979.41;;;20.94;48.86
55171;BME280;41060;47.510;8.680;2023-05-09T09:04:34;96969.56;;;21.44;46.55
55171;BME280;41060;47.510;8.680;2023-05-09T09:07:03;96965.00;;;21.44;45.86
55171;BME280;41060;47.510;8.680;2023-05-09T09:09:31;96956.78;;;21.53;45.65
55171;BME280;41060;47.510;8.680;2023-05-09T09:12:03;96954.41;;;21.85;46.04
55171;BME280;41060;47.510;8.680;2023-05-09T09:14:35;96955.03;;;21.66;46.27
55171;BME280;41060;47.510;8.680;2023-05-09T09:17:04;96949.53;;;22.02;45.81
55171;BME280;41060;47.510;8.680;2023-05-09T09:19:33;96930.94;;;22.14;44.66
55171;BME280;41060;47.510;8.680;2023-05-09T09:22:02;96938.53;;;22.38;43.82
55171;BME280;41060;47.510;8.680;2023-05-09T09:24:30;96898.63;;;22.27;43.31
55171;BME280;41060;47.510;8.680;2023-05-09T09:26:57;96945.09;;;22.63;42.30
55171;BME280;41060;47.510;8.680;2023-05-09T09:29:25;96931.00;;;22.68;42.20
55171;BME280;41060;47.510;8.680;2023-05-09T09:31:55;96932.72;;;22.82;41.87
55171;BME280;41060;47.510;8.680;2023-05-09T09:34:22;96922.94;;;22.81;41.99
55171;BME280;41060;47.510;8.680;2023-05-09T09:36:49;96926.31;;;22.90;41.20
55171;BME280;41060;47.510;8.680;2023-05-09T09:39:17;96918.69;;;23.13;40.77
55171;BME280;41060;47.510;8.680;2023-05-09T09:41:48;96892.94;;;23.11;40.90
55171;BME280;41060;47.510;8.680;2023-05-09T09:44:15;96915.56;;;23.29;39.81
55171;BME280;41060;47.510;8.680;2023-05-09T09:46:45;96911.44;;;23.47;40.84
55171;BME280;41060;47.510;8.680;2023-05-09T09:49:13;96899.19;;;23.57;41.16
55171;BME280;41060;47.510;8.680;2023-05-09T09:51:40;96898.13;;;23.45;40.11
55171;BME280;41060;47.510;8.680;2023-05-09T09:54:08;96892.09;;;23.56;40.04
55171;BME280;41060;47.510;8.680;2023-05-09T09:56:40;96895.84;;;23.62;40.01
55171;BME280;41060;47.510;8.680;2023-05-09T09:59:08;96896.25;;;23.52;38.52
55171;BME280;41060;47.510;8.680;2023-05-09T10:01:35;96895.00;;;23.48;40.37
55171;BME280;41060;47.510;8.680;2023-05-09T10:04:20;96882.50;;;23.08;40.88
55171;BME280;41060;47.510;8.680;2023-05-09T10:06:56;96881.28;;;23.17;41.99
55171;BME280;41060;47.510;8.680;2023-05-09T10:09:25;96877.78;;;23.36;41.67
55171;BME280;41060;47.510;8.680;2023-05-09T10:11:55;96858.41;;;23.59;39.88
55171;BME280;41060;47.510;8.680;2023-05-09T10:14:24;96847.81;;;23.70;39.71
55171;BME280;41060;47.510;8.680;2023-05-09T10:16:54;96864.00;;;23.90;38.49
55171;BME280;41060;47.510;8.680;2023-05-09T10:19:26;96863.97;;;24.03;38.62
55171;BME280;41060;47.510;8.680;2023-05-09T10:21:56;96846.63;;;24.24;37.63
55171;BME280;41060;47.510;8.680;2023-05-09T10:24:27;96837.63;;;24.37;36.99
55171;BME280;41060;47.510;8.680;2023-05-09T10:26:59;96844.00;;;24.55;37.69
55171;BME280;41060;47.510;8.680;2023-05-09T10:29:33;96841.25;;;24.69;36.28
55171;BME280;41060;47.510;8.680;2023-05-09T10:32:10;96826.00;;;24.74;37.51
55171;BME280;41060;47.510;8.680;2023-05-09T10:34:46;96833.25;;;24.42;37.32
55171;BME280;41060;47.510;8.680;2023-05-09T10:37:15;96829.59;;;24.10;38.53
55171;BME280;41060;47.510;8.680;2023-05-09T10:39:42;96823.47;;;23.70;40.04
55171;BME280;41060;47.510;8.680;2023-05-09T10:42:09;96815.56;;;23.69;38.98
55171;BME280;41060;47.510;8.680;2023-05-09T10:44:38;96787.81;;;23.35;39.28
55171;BME280;41060;47.510;8.680;2023-05-09T10:47:05;96812.25;;;23.67;37.88
55171;BME280;41060;47.510;8.680;2023-05-09T10:49:32;96809.69;;;23.98;38.72
55171;BME280;41060;47.510;8.680;2023-05-09T10:52:00;96808.72;;;23.86;37.56
55171;BME280;41060;47.510;8.680;2023-05-09T10:54:28;96802.66;;;23.84;37.04
55171;BME280;41060;47.510;8.680;2023-05-09T10:56:58;96809.22;;;24.14;36.85
55171;BME280;41060;47.510;8.680;2023-05-09T10:59:33;96792.28;;;23.88;36.17
55171;BME280;41060;47.510;8.680;2023-05-09T11:02:01;96785.09;;;24.13;36.29
55171;BME280;41060;47.510;8.680;2023-05-09T11:04:29;96778.66;;;24.52;36.23
55171;BME280;41060;47.510;8.680;2023-05-09T11:06:57;96763.31;;;24.33;37.58
55171;BME280;41060;47.510;8.680;2023-05-09T11:09:29;96778.19;;;24.24;35.89
55171;BME280;41060;47.510;8.680;2023-05-09T11:12:00;96737.66;;;24.10;35.90
55171;BME280;41060;47.510;8.680;2023-05-09T11:14:37;96761.19;;;24.48;35.94
55171;BME280;41060;47.510;8.680;2023-05-09T11:17:06;96752.91;;;24.43;38.36
55171;BME280;41060;47.510;8.680;2023-05-09T11:19:34;96749.50;;;24.54;37.26
55171;BME280;41060;47.510;8.680;2023-05-09T11:22:03;96740.00;;;24.70;36.14
55171;BME280;41060;47.510;8.680;2023-05-09T11:24:38;96745.25;;;24.65;36.04
55171;BME280;41060;47.510;8.680;2023-05-09T11:27:13;96747.47;;;24.74;35.95
55171;BME280;41060;47.510;8.680;2023-05-09T11:29:49;96738.19;;;24.64;37.03
55171;BME280;41060;47.510;8.680;2023-05-09T11:32:16;96731.44;;;24.73;37.41
55171;BME280;41060;47.510;8.680;2023-05-09T11:34:44;96729.31;;;24.81;36.93
55171;BME280;41060;47.510;8.680;2023-05-09T11:37:12;96720.94;;;24.58;37.07
55171;BME280;41060;47.510;8.680;2023-05-09T11:39:56;96719.03;;;24.65;36.20
55171;BME280;41060;47.510;8.680;2023-05-09T11:42:26;96716.94;;;24.67;36.31
55171;BME280;41060;47.510;8.680;2023-05-09T11:44:53;96718.91;;;24.53;35.86
55171;BME280;41060;47.510;8.680;2023-05-09T11:47:19;96705.03;;;24.37;36.87
55171;BME280;41060;47.510;8.680;2023-05-09T11:49:47;96702.56;;;24.35;36.42
55171;BME280;41060;47.510;8.680;2023-05-09T11:52:13;96701.28;;;24.44;36.23
55171;BME280;41060;47.510;8.680;2023-05-09T11:54:40;96673.53;;;24.49;36.41
55171;BME280;41060;47.510;8.680;2023-05-09T11:57:09;96692.09;;;24.95;35.99
55171;BME280;41060;47.510;8.680;2023-05-09T11:59:35;96693.06;;;24.82;35.78
55171;BME280;41060;47.510;8.680;2023-05-09T12:02:03;96687.88;;;24.81;36.38
55171;BME280;41060;47.510;8.680;2023-05-09T12:04:31;96678.16;;;25.16;36.94
55171;BME280;41060;47.510;8.680;2023-05-09T12:06:58;96671.25;;;25.20;35.84
55171;BME280;41060;47.510;8.680;2023-05-09T12:09:28;96678.19;;;24.67;37.45
55171;BME280;41060;47.510;8.680;2023-05-09T12:11:56;96676.09;;;24.44;37.98
55171;BME280;41060;47.510;8.680;2023-05-09T12:14:28;96668.69;;;24.58;37.54
55171;BME280;41060;47.510;8.680;2023-05-09T12:16:56;96665.53;;;24.85;37.09
55171;BME280;41060;47.510;8.680;2023-05-09T12:19:24;96642.84;;;24.62;36.61
55171;BME280;41060;47.510;8.680;2023-05-09T12:21:54;96651.56;;;24.64;37.91
55171;BME280;41060;47.510;8.680;2023-05-09T12:24:23;96653.94;;;24.78;37.62
55171;BME280;41060;47.510;8.680;2023-05-09T12:26:51;96660.13;;;24.61;37.20
55171;BME280;41060;47.510;8.680;2023-05-09T12:29:18;96636.63;;;24.61;36.79
55171;BME280;41060;47.510;8.680;2023-05-09T12:31:47;96615.94;;;24.67;37.65
55171;BME280;41060;47.510;8.680;2023-05-09T12:34:14;96612.00;;;24.63;35.65
55171;BME280;41060;47.510;8.680;2023-05-09T12:36:42;96637.16;;;25.13;36.26
55171;BME280;41060;47.510;8.680;2023-05-09T12:39:16;96643.31;;;25.38;35.48
55171;BME280;41060;47.510;8.680;2023-05-09T12:41:46;96634.38;;;25.38;36.89
55171;BME280;41060;47.510;8.680;2023-05-09T12:44:20;96628.91;;;25.01;35.73
55171;BME280;41060;47.510;8.680;2023-05-09T12:46:59;96620.91;;;25.13;36.70
55171;BME280;41060;47.510;8.680;2023-05-09T12:49:26;96621.56;;;25.08;36.42
55171;BME280;41060;47.510;8.680;2023-05-09T12:51:55;96629.63;;;25.15;37.47
55171;BME280;41060;47.510;8.680;2023-05-09T12:54:23;96609.97;;;25.01;36.95
55171;BME280;41060;47.510;8.680;2023-05-09T12:56:51;96611.19;;;25.42;36.05
55171;BME280;41060;47.510;8.680;2023-05-09T12:59:22;96612.38;;;25.46;37.42
55171;BME280;41060;47.510;8.680;2023-05-09T13:01:53;96615.69;;;25.48;36.12
55171;BME280;41060;47.510;8.680;2023-05-09T13:04:25;96613.44;;;25.45;36.20
55171;BME280;41060;47.510;8.680;2023-05-09T13:06:53;96606.13;;;25.45;35.43